Time;durP1;ratioP1;P1;durP2;ratioP2;P2;SDS_P1;SDS_P2;PMS_P1;PMS_P2;Temp;Humidity;BMP_temperature;BMP_pressure;BME280_temperature;BME280_humidity;BME280_pressure;Samples;Min_cycle;Max_cycle;Signal;HPM_P1;HPM_P2
2022/03/26 00:00:10;;;;;;;59.57;28.23;;;;;;;7.12;70.93;102549.03;5115862;27;20242;-67
2022/03/26 00:02:37;;;;;;;57.40;31.97;;;;;;;7.06;71.05;102539.47;5113671;27;20223;-67
2022/03/26 00:05:04;;;;;;;54.90;29.20;;;;;;;7.13;71.20;102540.38;5122463;27;20215;-67
2022/03/26 00:07:30;;;;;;;56.33;29.40;;;;;;;7.15;71.07;102544.72;5119748;27;20203;-67
2022/03/26 00:09:57;;;;;;;46.83;27.90;;;;;;;7.18;70.81;102542.13;5129256;27;20683;-67
2022/03/26 00:12:23;;;;;;;60.10;28.37;;;;;;;7.07;71.01;102542.94;5132135;27;20558;-67
2022/03/26 00:14:50;;;;;;;56.27;28.27;;;;;;;6.97;71.14;102544.66;5135048;27;20266;-67
2022/03/26 00:17:16;;;;;;;44.73;25.93;;;;;;;6.94;71.32;102538.59;5132977;27;20583;-67
2022/03/26 00:19:43;;;;;;;59.03;27.10;;;;;;;6.97;71.32;102541.19;5118790;27;20188;-67
2022/03/26 00:22:09;;;;;;;44.40;26.27;;;;;;;7.00;71.29;102538.59;5130870;27;20204;-67
2022/03/26 00:24:36;;;;;;;54.60;26.23;;;;;;;6.97;71.29;102539.47;5123991;27;20286;-67
2022/03/26 00:27:03;;;;;;;40.87;26.70;;;;;;;6.93;71.36;102534.22;5131334;27;20202;-67
2022/03/26 00:29:30;;;;;;;59.20;26.57;;;;;;;6.84;71.72;102543.75;5095830;28;20212;-67
2022/03/26 00:31:57;;;;;;;43.03;26.00;;;;;;;6.77;72.07;102544.59;5130042;27;20708;-67
2022/03/26 00:34:24;;;;;;;57.00;26.77;;;;;;;6.71;72.71;102543.69;5133099;27;20203;-67
2022/03/26 00:36:50;;;;;;;43.77;25.63;;;;;;;6.88;72.71;102544.66;5133583;27;20189;-67
2022/03/26 00:39:17;;;;;;;44.00;25.63;;;;;;;6.90;72.03;102537.69;5129168;27;20596;-67
2022/03/26 00:41:43;;;;;;;53.30;26.63;;;;;;;6.90;72.14;102533.38;5134975;27;20192;-67
2022/03/26 00:44:10;;;;;;;45.57;27.60;;;;;;;6.81;72.49;102533.34;5116157;27;20273;-67
2022/03/26 00:46:37;;;;;;;43.03;26.20;;;;;;;6.73;72.66;102535.06;5115590;27;20199;-67
2022/03/26 00:49:03;;;;;;;41.60;24.43;;;;;;;6.65;73.03;102535.88;5120640;27;20660;-68
2022/03/26 00:51:30;;;;;;;47.23;25.30;;;;;;;6.63;73.18;102528.06;5134183;27;20674;-67
2022/03/26 00:53:56;;;;;;;43.83;25.53;;;;;;;6.66;73.54;102529.81;5127929;27;20215;-67
2022/03/26 00:56:23;;;;;;;41.67;24.17;;;;;;;6.62;73.80;102527.19;5121539;27;20640;-67
2022/03/26 00:58:49;;;;;;;47.50;25.20;;;;;;;6.62;73.63;102529.78;5121680;27;20683;-68
2022/03/26 01:01:16;;;;;;;54.33;25.73;;;;;;;6.60;73.81;102531.53;5124035;27;20582;-67
2022/03/26 01:03:42;;;;;;;44.33;25.37;;;;;;;6.61;73.81;102527.19;5133236;27;20217;-67
2022/03/26 01:06:09;;;;;;;48.27;26.57;;;;;;;6.64;73.60;102527.19;5133244;27;20198;-67
2022/03/26 01:08:35;;;;;;;45.07;26.00;;;;;;;6.61;73.89;102529.78;5119195;27;20310;-67
2022/03/26 01:11:02;;;;;;;45.97;26.07;;;;;;;6.66;74.03;102538.50;5119613;28;20197;-67
2022/03/26 01:13:30;;;;;;;45.80;25.00;;;;;;;6.71;73.65;102544.56;5123926;27;20215;-67
2022/03/26 01:15:56;;;;;;;41.80;24.97;;;;;;;6.78;73.51;102541.13;5121211;27;20196;-67
2022/03/26 01:18:23;;;;;;;55.27;26.43;;;;;;;6.86;72.97;102547.25;5123152;28;20193;-67
2022/03/26 01:20:49;;;;;;;42.87;26.17;;;;;;;6.89;73.09;102544.66;5113960;28;20186;-67
2022/03/26 01:23:19;;;;;;;65.70;26.17;;;;;;;6.87;73.02;102538.56;5122045;28;20215;-67
2022/03/26 01:25:46;;;;;;;42.63;25.47;;;;;;;6.87;72.94;102545.53;5125702;28;20188;-67
2022/03/26 01:28:14;;;;;;;42.63;25.30;;;;;;;6.87;73.38;102546.38;5117289;28;20249;-67
2022/03/26 01:30:41;;;;;;;41.50;24.90;;;;;;;6.88;73.48;102542.03;5126692;28;20578;-67
2022/03/26 01:33:08;;;;;;;60.83;24.80;;;;;;;6.95;73.40;102550.75;5128231;28;20732;-68
2022/03/26 01:35:34;;;;;;;51.70;24.97;;;;;;;6.95;73.30;102554.22;5117194;28;20202;-67
2022/03/26 01:38:01;;;;;;;39.03;23.80;;;;;;;6.99;73.72;102537.72;5129317;28;20242;-67
2022/03/26 01:40:28;;;;;;;42.40;23.77;;;;;;;7.03;73.69;102541.22;5129311;28;20239;-67
2022/03/26 01:42:54;;;;;;;41.43;22.80;;;;;;;6.98;73.89;102545.53;5128182;28;20548;-67
2022/03/26 01:45:21;;;;;;;43.97;22.73;;;;;;;7.06;73.34;102541.22;5125591;28;20195;-67
2022/03/26 01:47:47;;;;;;;44.63;25.17;;;;;;;7.06;73.45;102539.47;5120625;27;20596;-67
2022/03/26 01:50:14;;;;;;;44.97;24.47;;;;;;;6.98;73.74;102537.72;5127355;27;20249;-67
2022/03/26 01:52:41;;;;;;;53.17;24.00;;;;;;;6.99;74.41;102534.25;5119113;27;20246;-67
2022/03/26 01:55:08;;;;;;;40.77;23.33;;;;;;;6.89;74.49;102530.75;5125793;27;20256;-67
2022/03/26 01:57:35;;;;;;;42.40;23.97;;;;;;;6.79;74.99;102540.28;5137165;27;20591;-67
2022/03/26 02:00:03;;;;;;;46.67;25.40;;;;;;;6.76;74.79;102539.38;5130213;27;20193;-67
2022/03/26 02:02:43;;;;;;;48.07;24.03;;;;;;;6.76;74.64;102540.25;5131512;27;20605;-67
2022/03/26 02:05:14;;;;;;;47.83;23.37;;;;;;;6.63;75.04;102541.94;5121850;27;20204;-67
2022/03/26 02:07:43;;;;;;;41.27;23.27;;;;;;;6.57;74.87;102536.72;5135342;27;20200;-67
2022/03/26 02:10:12;;;;;;;39.17;23.87;;;;;;;6.45;75.43;102527.97;5133325;27;20194;-67
2022/03/26 02:12:39;;;;;;;42.10;22.90;;;;;;;6.35;75.98;102529.66;5124463;27;20208;-67
2022/03/26 02:15:06;;;;;;;42.03;25.10;;;;;;;6.20;76.51;102537.38;5129235;27;20621;-67
2022/03/26 02:17:34;;;;;;;38.97;25.07;;;;;;;6.14;76.92;102533.00;5133635;27;20206;-67
2022/03/26 02:20:06;;;;;;;36.87;24.67;;;;;;;6.13;77.79;102538.19;5116172;27;20718;-67
2022/03/26 02:22:33;;;;;;;40.53;25.27;;;;;;;6.09;77.87;102531.25;5119466;27;20185;-69
2022/03/26 02:24:59;;;;;;;47.70;24.17;;;;;;;6.03;78.28;102529.47;5115754;28;20214;-67
2022/03/26 02:27:30;;;;;;;44.10;25.10;;;;;;;5.87;78.93;102527.59;5115877;28;20598;-67
2022/03/26 02:29:57;;;;;;;53.23;25.40;;;;;;;5.85;78.93;102527.56;5115581;28;20266;-67
2022/03/26 02:32:27;;;;;;;42.37;24.40;;;;;;;5.84;79.08;102519.75;5117836;27;20264;-67
2022/03/26 02:34:54;;;;;;;48.77;27.47;;;;;;;5.78;79.70;102526.66;5120059;27;20615;-67
2022/03/26 02:37:29;;;;;;;50.87;25.10;;;;;;;5.71;80.13;102526.59;5132387;27;20200;-67
2022/03/26 02:39:55;;;;;;;47.53;23.90;;;;;;;5.67;80.31;102528.31;5135620;27;20238;-68
2022/03/26 02:42:22;;;;;;;46.03;25.47;;;;;;;5.68;80.38;102527.44;5127080;27;20196;-67
2022/03/26 02:44:50;;;;;;;43.53;25.60;;;;;;;5.68;80.35;102530.03;5119394;27;20206;-67
2022/03/26 02:47:16;;;;;;;49.23;23.70;;;;;;;5.62;80.56;102531.72;5116436;27;20549;-67
2022/03/26 02:49:43;;;;;;;43.60;25.80;;;;;;;5.60;80.82;102534.31;5136902;27;20619;-67
2022/03/26 02:52:09;;;;;;;45.40;25.03;;;;;;;5.57;81.18;102533.41;5135636;27;20245;-68
2022/03/26 02:54:36;;;;;;;43.63;25.00;;;;;;;5.59;81.02;102531.69;5115693;27;20275;-67
2022/03/26 02:57:03;;;;;;;40.03;23.50;;;;;;;5.57;81.20;102536.00;5116760;27;20266;-67
2022/03/26 02:59:29;;;;;;;46.20;25.30;;;;;;;5.49;81.40;102533.34;5114628;27;20193;-67
2022/03/26 03:01:56;;;;;;;40.43;23.63;;;;;;;5.44;81.30;102527.25;5116320;28;20613;-68
2022/03/26 03:04:24;;;;;;;40.33;22.97;;;;;;;5.37;81.37;102528.91;5115383;28;20212;-67
2022/03/26 03:06:51;;;;;;;43.17;24.77;;;;;;;5.38;81.60;102532.38;5115422;28;20189;-67
2022/03/26 03:09:18;;;;;;;41.20;22.67;;;;;;;5.31;81.76;102533.19;5129059;27;20367;-67
2022/03/26 03:11:45;;;;;;;53.93;25.60;;;;;;;5.34;81.58;102528.00;5125724;27;20604;-67
2022/03/26 03:14:11;;;;;;;57.03;25.97;;;;;;;5.38;82.05;102525.47;5115567;28;20266;-67
2022/03/26 03:16:38;;;;;;;47.17;24.70;;;;;;;5.19;82.42;102529.59;5127067;27;20200;-67
2022/03/26 03:19:04;;;;;;;47.00;24.27;;;;;;;5.16;82.67;102526.09;5132014;27;20189;-67
2022/03/26 03:21:32;;;;;;;56.93;25.77;;;;;;;5.14;82.71;102527.78;5116487;27;20201;-67
2022/03/26 03:23:58;;;;;;;54.93;25.20;;;;;;;5.05;82.91;102531.16;5114198;28;20624;-66
2022/03/26 03:26:25;;;;;;;43.17;25.37;;;;;;;5.00;83.18;102524.19;5127211;27;20219;-67
2022/03/26 03:28:51;;;;;;;50.80;26.10;;;;;;;4.92;83.50;102535.34;5135320;27;20192;-67
2022/03/26 03:31:18;;;;;;;47.07;25.77;;;;;;;4.85;83.68;102535.25;5135047;27;20192;-67
2022/03/26 03:33:45;;;;;;;48.13;23.93;;;;;;;4.76;84.18;102536.03;5123728;27;20223;-67
2022/03/26 03:36:11;;;;;;;48.80;25.50;;;;;;;4.63;84.84;102529.81;5118754;27;20185;-67
2022/03/26 03:38:38;;;;;;;43.90;24.40;;;;;;;4.61;84.66;102536.72;5127365;27;20196;-67
2022/03/26 03:41:04;;;;;;;49.50;26.60;;;;;;;4.59;84.99;102535.84;5133671;27;20185;-67
2022/03/26 03:43:31;;;;;;;52.47;25.67;;;;;;;4.62;85.22;102535.00;5118419;27;20220;-67
2022/03/26 03:45:57;;;;;;;50.03;25.23;;;;;;;4.66;85.33;102532.47;5116320;27;20200;-67
2022/03/26 03:48:24;;;;;;;49.80;24.27;;;;;;;4.68;85.58;102538.53;5125198;27;20192;-66
2022/03/26 03:50:50;;;;;;;57.63;27.17;;;;;;;4.66;85.61;102536.78;5135557;27;20185;-67
2022/03/26 03:53:17;;;;;;;45.67;25.00;;;;;;;4.63;85.73;102537.59;5125724;27;20212;-67
2022/03/26 03:55:43;;;;;;;47.93;25.10;;;;;;;4.61;85.91;102538.44;5119156;27;20201;-67
2022/03/26 03:58:10;;;;;;;51.17;27.20;;;;;;;4.56;85.65;102535.78;5127846;27;20200;-66
2022/03/26 04:00:36;;;;;;;44.77;24.70;;;;;;;4.53;85.41;102535.75;5116368;27;20188;-67
2022/03/26 04:03:03;;;;;;;44.83;25.13;;;;;;;4.51;85.01;102534.88;5121018;27;20230;-67
2022/03/26 04:05:30;;;;;;;47.10;24.67;;;;;;;4.44;84.55;102527.88;5121460;27;20190;-67
2022/03/26 04:07:57;;;;;;;43.53;25.10;;;;;;;4.30;85.00;102527.69;5120360;27;20185;-67
2022/03/26 04:10:23;;;;;;;51.63;25.77;;;;;;;4.22;85.23;102541.38;5126542;27;20196;-67
2022/03/26 04:12:55;;;;;;;39.50;23.20;;;;;;;4.19;85.08;102544.78;5119320;27;20206;-67
2022/03/26 04:15:22;;;;;;;46.97;26.40;;;;;;;4.20;85.20;102543.94;5122900;27;20204;-67
2022/03/26 04:17:51;;;;;;;44.30;24.17;;;;;;;4.16;85.75;102541.28;5115548;27;20192;-66
2022/03/26 04:20:17;;;;;;;61.10;26.97;;;;;;;4.13;86.11;102544.69;5135159;27;20245;-66
2022/03/26 04:22:44;;;;;;;53.47;30.03;;;;;;;4.26;85.81;102543.16;5120772;27;20185;-66
2022/03/26 04:25:10;;;;;;;50.13;26.60;;;;;;;4.24;86.01;102550.91;5132048;27;20245;-66
2022/03/26 04:27:43;;;;;;;46.73;26.00;;;;;;;4.24;85.98;102557.81;5113957;27;20193;-66
2022/03/26 04:30:11;;;;;;;50.57;24.57;;;;;;;4.20;86.06;102551.72;5122288;27;20653;-66
2022/03/26 04:32:37;;;;;;;52.57;28.93;;;;;;;4.16;86.33;102554.25;5130880;27;20201;-66
2022/03/26 04:35:05;;;;;;;49.37;26.53;;;;;;;4.17;87.04;102551.69;5118210;27;20287;-66
2022/03/26 04:37:33;;;;;;;54.90;27.47;;;;;;;4.19;86.55;102547.38;5113253;27;20223;-66
2022/03/26 04:40:00;;;;;;;50.30;26.73;;;;;;;4.20;86.65;102553.44;5131799;27;20746;-66
2022/03/26 04:42:26;;;;;;;48.60;27.10;;;;;;;4.15;86.22;102553.38;5131930;27;20554;-66
2022/03/26 04:44:53;;;;;;;54.73;26.50;;;;;;;4.08;86.92;102555.00;5113627;28;20200;-66
2022/03/26 04:47:20;;;;;;;49.03;27.07;;;;;;;4.08;86.81;102552.41;5114625;27;20653;-66
2022/03/26 04:49:47;;;;;;;41.50;23.83;;;;;;;4.05;86.95;102557.53;5134691;27;20527;-66
2022/03/26 04:52:13;;;;;;;51.87;25.60;;;;;;;4.02;86.76;102556.63;5133597;27;20596;-67
2022/03/26 04:54:42;;;;;;;57.17;24.87;;;;;;;3.99;86.93;102559.16;5132455;27;20204;-66
2022/03/26 04:57:10;;;;;;;47.87;24.27;;;;;;;3.94;86.77;102553.94;5116025;27;20193;-67
2022/03/26 04:59:36;;;;;;;44.77;25.50;;;;;;;3.92;86.80;102555.59;5113618;27;20189;-66
2022/03/26 05:02:03;;;;;;;48.67;25.43;;;;;;;3.91;86.91;102563.34;5113543;27;20188;-66
2022/03/26 05:04:30;;;;;;;43.17;25.70;;;;;;;3.88;87.19;102565.91;5124089;27;20266;-66
2022/03/26 05:06:57;;;;;;;49.50;26.13;;;;;;;3.87;87.21;102557.28;5125546;27;20229;-66
2022/03/26 05:09:23;;;;;;;46.07;24.67;;;;;;;3.80;87.38;102571.84;5124219;27;20212;-67
2022/03/26 05:11:50;;;;;;;52.53;26.47;;;;;;;3.76;87.25;102575.22;5128283;27;20656;-67
2022/03/26 05:14:17;;;;;;;55.83;27.07;;;;;;;3.74;87.57;102571.75;5133236;27;20269;-67
2022/03/26 05:16:44;;;;;;;44.87;25.53;;;;;;;3.69;87.63;102570.78;5121463;27;20283;-67
2022/03/26 05:19:10;;;;;;;42.93;24.63;;;;;;;3.63;87.83;102578.44;5132711;28;20192;-67
2022/03/26 05:21:37;;;;;;;47.93;25.17;;;;;;;3.64;87.98;102582.78;5127925;27;20246;-67
2022/03/26 05:24:05;;;;;;;51.10;25.33;;;;;;;3.64;88.42;102581.91;5120844;28;20201;-67
2022/03/26 05:26:31;;;;;;;52.03;23.83;;;;;;;3.61;88.63;102587.03;5121384;28;20184;-67
2022/03/26 05:28:59;;;;;;;56.97;25.23;;;;;;;3.59;88.70;102584.44;5113215;28;20237;-67
2022/03/26 05:31:26;;;;;;;50.83;25.60;;;;;;;3.56;88.82;102576.59;5131635;28;20662;-67
2022/03/26 05:33:52;;;;;;;45.67;24.63;;;;;;;3.53;88.90;102582.59;5130751;28;20219;-67
2022/03/26 05:36:19;;;;;;;51.23;25.40;;;;;;;3.52;88.88;102585.16;5115767;28;20194;-67
2022/03/26 05:38:45;;;;;;;43.03;24.70;;;;;;;3.50;89.18;102587.75;5126535;28;20193;-67
2022/03/26 05:41:12;;;;;;;39.03;25.57;;;;;;;3.47;89.03;102585.06;5116009;28;20190;-66
2022/03/26 05:43:38;;;;;;;53.50;26.77;;;;;;;3.45;89.07;102589.38;5115457;28;20216;-67
2022/03/26 05:46:05;;;;;;;50.93;26.37;;;;;;;3.45;89.22;102591.94;5114945;28;20243;-66
2022/03/26 05:48:31;;;;;;;50.60;25.13;;;;;;;3.42;89.34;102593.59;5113085;28;20185;-66
2022/03/26 05:50:58;;;;;;;58.47;28.17;;;;;;;3.43;89.44;102592.75;5127320;28;20199;-66
2022/03/26 05:53:24;;;;;;;54.07;26.87;;;;;;;3.43;89.59;102601.41;5132700;28;20230;-66
2022/03/26 05:55:52;;;;;;;54.50;25.20;;;;;;;3.43;89.76;102604.00;5130714;28;20611;-66
2022/03/26 05:58:19;;;;;;;54.43;27.23;;;;;;;3.46;90.09;102611.81;5112867;28;20257;-66
2022/03/26 06:00:48;;;;;;;59.30;27.30;;;;;;;3.52;90.65;102613.66;5113587;28;20185;-66
2022/03/26 06:03:17;;;;;;;59.73;24.90;;;;;;;3.61;91.49;102615.53;5112483;28;20205;-67
2022/03/26 06:05:46;;;;;;;44.70;26.10;;;;;;;3.64;91.87;102623.34;5129632;28;20196;-68
2022/03/26 06:08:13;;;;;;;48.10;25.13;;;;;;;3.70;92.46;102629.50;5125644;28;20665;-66
2022/03/26 06:10:40;;;;;;;51.57;24.87;;;;;;;3.78;92.81;102624.47;5113025;28;20203;-67
2022/03/26 06:13:06;;;;;;;49.30;25.20;;;;;;;3.82;92.97;102634.91;5112607;28;20250;-66
2022/03/26 06:15:34;;;;;;;49.57;25.80;;;;;;;3.88;93.08;102635.88;5132495;28;20196;-68
2022/03/26 06:18:12;;;;;;;44.67;26.43;;;;;;;3.94;92.95;102633.41;5112946;28;20198;-67
2022/03/26 06:20:38;;;;;;;54.00;27.47;;;;;;;3.98;92.91;102630.84;5112538;28;20250;-66
2022/03/26 06:23:05;;;;;;;53.40;28.17;;;;;;;4.03;92.87;102633.53;5120906;28;20210;-67
2022/03/26 06:25:32;;;;;;;50.33;26.60;;;;;;;4.11;92.83;102631.94;5133649;28;20253;-66
2022/03/26 06:27:59;;;;;;;55.23;26.80;;;;;;;4.17;93.13;102638.94;5118014;28;20188;-67
2022/03/26 06:30:26;;;;;;;59.17;26.63;;;;;;;4.24;93.03;102636.47;5114726;28;20185;-67
2022/03/26 06:32:52;;;;;;;62.17;26.57;;;;;;;4.35;93.22;102634.03;5132672;27;20205;-67
2022/03/26 06:35:19;;;;;;;58.23;26.30;;;;;;;4.42;92.96;102639.34;5129768;27;20197;-67
2022/03/26 06:37:46;;;;;;;61.73;28.20;;;;;;;4.45;92.65;102633.34;5120366;27;20518;-67
2022/03/26 06:40:13;;;;;;;49.90;27.37;;;;;;;4.53;92.51;102633.44;5137431;27;20188;-66
2022/03/26 06:42:39;;;;;;;55.43;27.33;;;;;;;4.61;92.30;102634.44;5120910;27;20202;-66
2022/03/26 06:45:06;;;;;;;61.63;28.70;;;;;;;4.68;92.21;102629.34;5125662;27;20251;-66
2022/03/26 06:47:33;;;;;;;55.57;28.07;;;;;;;4.82;92.70;102629.53;5121912;27;20196;-66
2022/03/26 06:49:59;;;;;;;63.00;30.77;;;;;;;5.01;92.60;102630.66;5131812;27;20257;-66
2022/03/26 06:52:25;;;;;;;68.07;31.50;;;;;;;5.21;92.09;102634.38;5135668;27;20193;-66
2022/03/26 06:54:52;;;;;;;52.27;28.30;;;;;;;5.42;91.54;102638.03;5136548;27;20264;-66
2022/03/26 06:57:19;;;;;;;61.87;29.57;;;;;;;5.58;90.70;102633.91;5130383;27;20519;-67
2022/03/26 06:59:46;;;;;;;68.80;33.93;;;;;;;5.83;89.05;102635.00;5116463;27;20612;-66
2022/03/26 07:02:12;;;;;;;68.20;31.43;;;;;;;5.98;88.48;102633.44;5131782;27;20225;-69
2022/03/26 07:04:39;;;;;;;65.47;31.93;;;;;;;6.17;87.91;102631.84;5115913;28;20216;-67
2022/03/26 07:07:06;;;;;;;59.53;31.40;;;;;;;6.32;87.27;102631.97;5114692;28;20193;-66
2022/03/26 07:09:33;;;;;;;60.50;31.60;;;;;;;6.51;86.15;102632.97;5115289;28;20192;-66
2022/03/26 07:12:00;;;;;;;69.13;32.33;;;;;;;6.76;85.27;102633.97;5114943;28;20263;-67
2022/03/26 07:14:26;;;;;;;72.27;30.90;;;;;;;6.90;84.03;102637.53;5123021;27;20226;-67
2022/03/26 07:16:53;;;;;;;62.80;32.70;;;;;;;7.11;81.41;102638.47;5128894;27;20199;-67
2022/03/26 07:19:19;;;;;;;54.77;30.87;;;;;;;7.24;80.44;102639.41;5120361;27;20195;-67
2022/03/26 07:21:46;;;;;;;57.17;31.03;;;;;;;7.31;80.65;102643.78;5135193;27;20195;-67
2022/03/26 07:24:12;;;;;;;55.60;32.33;;;;;;;7.38;81.19;102645.53;5116874;27;20217;-67
2022/03/26 07:26:39;;;;;;;67.87;32.97;;;;;;;7.55;80.47;102635.13;5132663;27;20197;-67
2022/03/26 07:29:05;;;;;;;63.70;33.47;;;;;;;7.69;79.04;102636.91;5126929;27;20202;-67
2022/03/26 07:31:32;;;;;;;48.70;27.43;;;;;;;7.87;77.64;102649.09;5122998;27;20199;-67
2022/03/26 07:33:58;;;;;;;58.17;28.83;;;;;;;8.06;77.55;102643.88;5115043;28;20240;-67
2022/03/26 07:36:25;;;;;;;49.80;27.57;;;;;;;8.09;77.58;102639.56;5118265;27;20208;-67
2022/03/26 07:38:52;;;;;;;47.20;26.90;;;;;;;8.25;77.12;102632.59;5122726;27;20191;-67
2022/03/26 07:41:18;;;;;;;52.63;28.33;;;;;;;8.52;76.92;102639.53;5127204;27;20196;-67
2022/03/26 07:43:45;;;;;;;54.90;27.53;;;;;;;8.58;75.94;102641.28;5120567;27;20740;-67
2022/03/26 07:46:11;;;;;;;52.83;28.70;;;;;;;8.72;75.17;102635.16;5118813;27;20201;-67
2022/03/26 07:48:38;;;;;;;52.97;28.27;;;;;;;8.85;75.12;102632.47;5127562;27;20220;-67
2022/03/26 07:51:04;;;;;;;49.57;27.20;;;;;;;8.90;74.93;102638.56;5102260;28;20652;-67
2022/03/26 07:53:31;;;;;;;55.03;27.60;;;;;;;8.98;74.13;102645.50;5134244;27;20216;-67
2022/03/26 07:55:57;;;;;;;54.10;29.27;;;;;;;9.20;72.13;102642.78;5129407;27;20659;-67
2022/03/26 07:58:24;;;;;;;53.60;28.87;;;;;;;9.34;72.63;102646.22;5123602;27;20182;-68
2022/03/26 08:00:50;;;;;;;60.77;31.23;;;;;;;9.50;72.41;102647.88;5122458;27;20193;-67
2022/03/26 08:03:17;;;;;;;52.47;30.10;;;;;;;9.54;71.71;102651.34;5134135;27;20213;-68
2022/03/26 08:05:44;;;;;;;50.30;29.17;;;;;;;9.65;71.56;102650.41;5135596;27;20187;-68
2022/03/26 08:08:10;;;;;;;46.00;28.67;;;;;;;9.80;70.50;102656.41;5135002;27;20192;-68
2022/03/26 08:10:37;;;;;;;45.90;26.77;;;;;;;9.99;69.28;102655.38;5134558;27;20567;-67
2022/03/26 08:13:04;;;;;;;44.93;28.13;;;;;;;10.07;68.13;102657.94;5127195;27;20221;-68
2022/03/26 08:15:31;;;;;;;45.23;26.27;;;;;;;10.10;68.84;102653.56;5117475;27;20193;-68
2022/03/26 08:18:02;;;;;;;49.80;27.57;;;;;;;10.32;68.16;102656.03;5121867;27;20189;-68
2022/03/26 08:20:32;;;;;;;43.17;26.53;;;;;;;10.47;66.88;102651.50;5124883;27;20189;-67
2022/03/26 08:22:58;;;;;;;45.80;26.40;;;;;;;10.61;67.48;102659.22;5132410;27;20190;-68
2022/03/26 08:28:11;;;;;;;48.67;28.07;;;;;;;10.93;66.67;102663.25;5115114;27;20200;-68
2022/03/26 08:30:41;;;;;;;47.23;27.77;;;;;;;11.10;66.18;102663.94;5121551;27;20180;-68
2022/03/26 08:33:08;;;;;;;54.17;26.93;;;;;;;11.28;66.39;102666.31;5099045;28;20228;-67
2022/03/26 08:35:36;;;;;;;62.10;27.07;;;;;;;11.53;64.36;102666.00;5114328;28;20181;-67
2022/03/26 08:38:03;;;;;;;46.43;25.60;;;;;;;11.64;65.37;102661.44;5114885;27;20233;-68
2022/03/26 08:40:29;;;;;;;52.13;27.33;;;;;;;11.81;64.04;102659.50;5114483;28;20585;-68
2022/03/26 08:42:58;;;;;;;40.70;24.87;;;;;;;11.93;64.19;102660.16;5126537;27;20189;-68
2022/03/26 08:45:29;;;;;;;48.83;25.00;;;;;;;12.18;62.20;102658.91;5129242;27;20185;-68
2022/03/26 08:47:56;;;;;;;39.27;24.20;;;;;;;12.41;62.28;102666.38;5114447;28;20165;-68
2022/03/26 08:50:23;;;;;;;48.60;24.57;;;;;;;12.47;61.12;102655.75;5123855;27;20213;-68
2022/03/26 08:52:50;;;;;;;45.00;24.37;;;;;;;12.66;59.82;102659.78;5132923;27;20187;-69
2022/03/26 08:55:17;;;;;;;36.63;22.93;;;;;;;12.73;59.43;102667.56;5134243;27;20200;-68
2022/03/26 08:57:44;;;;;;;43.93;23.93;;;;;;;12.84;59.85;102661.19;5131948;27;20172;-69
2022/03/26 09:00:13;;;;;;;37.63;23.13;;;;;;;13.06;58.76;102671.28;5132476;27;20192;-68
2022/03/26 09:02:40;;;;;;;42.67;24.13;;;;;;;13.15;59.27;102661.47;5134793;27;20537;-68
2022/03/26 09:05:08;;;;;;;39.73;24.70;;;;;;;13.21;59.48;102663.97;5099778;27;20228;-68
2022/03/26 09:07:35;;;;;;;41.50;23.83;;;;;;;13.49;59.09;102674.78;5133895;27;20543;-69
2022/03/26 09:10:03;;;;;;;41.93;22.93;;;;;;;13.80;56.96;102668.84;5115678;28;20931;-68
2022/03/26 09:12:29;;;;;;;39.93;22.43;;;;;;;13.86;57.14;102673.97;5134610;27;20216;-68
2022/03/26 09:14:56;;;;;;;40.77;22.17;;;;;;;13.92;56.62;102673.78;5126780;27;20208;-69
2022/03/26 09:17:22;;;;;;;35.10;20.13;;;;;;;14.11;56.07;102670.72;5134276;27;20609;-68
2022/03/26 09:19:49;;;;;;;30.97;21.70;;;;;;;14.27;56.72;102667.66;5116163;27;20189;-67
2022/03/26 09:22:16;;;;;;;27.47;20.80;;;;;;;14.52;56.38;102673.22;5113948;28;20650;-67
2022/03/26 09:24:43;;;;;;;27.30;20.83;;;;;;;14.62;55.91;102665.03;5109699;28;20208;-68
2022/03/26 09:27:10;;;;;;;41.07;21.87;;;;;;;14.72;55.30;102679.72;5134409;28;20552;-68
2022/03/26 09:29:36;;;;;;;29.60;20.20;;;;;;;14.85;53.61;102678.44;5125368;28;20658;-70
2022/03/26 09:32:03;;;;;;;33.97;18.20;;;;;;;14.95;54.60;102672.03;5113794;28;20250;-68
2022/03/26 09:34:30;;;;;;;37.33;20.30;;;;;;;15.02;53.87;102678.88;5113278;28;20254;-68
2022/03/26 09:36:56;;;;;;;27.17;18.47;;;;;;;15.14;54.02;102678.53;5117079;28;20246;-69
2022/03/26 09:39:23;;;;;;;32.23;19.97;;;;;;;15.36;54.22;102678.75;5120481;28;20185;-69
2022/03/26 09:41:51;;;;;;;31.43;19.37;;;;;;;15.57;53.40;102684.28;5131638;28;20662;-69
2022/03/26 09:44:19;;;;;;;25.40;19.07;;;;;;;15.91;53.33;102678.84;5116303;28;20232;-69
2022/03/26 09:46:45;;;;;;;29.17;19.03;;;;;;;15.72;54.80;102685.59;5113495;28;20186;-68
2022/03/26 09:49:12;;;;;;;34.67;20.03;;;;;;;15.91;51.77;102682.34;5113381;28;20189;-68
2022/03/26 09:51:39;;;;;;;26.33;16.77;;;;;;;16.02;52.69;102678.50;5123989;28;20545;-69
2022/03/26 09:54:05;;;;;;;21.37;16.23;;;;;;;16.04;50.87;102677.53;5133784;28;20204;-69
2022/03/26 09:56:32;;;;;;;36.03;15.30;;;;;;;16.33;50.47;102673.91;5133850;28;20204;-69
2022/03/26 09:58:59;;;;;;;17.60;14.80;;;;;;;16.43;47.77;102661.22;5122320;28;20199;-69
2022/03/26 10:01:26;;;;;;;20.23;15.30;;;;;;;16.40;49.76;102656.91;5113879;28;20651;-69
2022/03/26 10:04:12;;;;;;;22.47;16.63;;;;;;;16.58;47.77;102663.38;5113336;28;20288;-68
2022/03/26 10:06:47;;;;;;;18.03;16.03;;;;;;;16.64;47.51;102665.75;5113552;28;20612;-68
2022/03/26 10:09:24;;;;;;;23.50;16.40;;;;;;;16.64;47.59;102657.84;5126604;27;20234;-69
2022/03/26 10:12:17;;;;;;;20.60;15.40;;;;;;;16.56;49.24;102657.25;5129484;27;20173;-69
2022/03/26 10:14:47;;;;;;;19.70;16.30;;;;;;;16.71;48.19;102664.66;5120689;27;20224;-68
2022/03/26 10:17:30;;;;;;;18.40;15.17;;;;;;;16.94;48.25;102658.56;5117352;28;20176;-68
2022/03/26 10:20:08;;;;;;;18.73;14.70;;;;;;;17.12;49.29;102658.78;5117219;28;20207;-68
2022/03/26 10:22:34;;;;;;;26.03;15.70;;;;;;;17.28;47.24;102650.19;5130158;27;20234;-69
2022/03/26 10:25:07;;;;;;;15.73;14.33;;;;;;;17.25;47.92;102654.75;5137489;27;20204;-69
2022/03/26 10:27:49;;;;;;;14.87;13.37;;;;;;;17.17;47.88;102649.75;5137983;27;20180;-69
2022/03/26 10:32:38;;;;;;;15.73;13.47;;;;;;;17.24;49.06;102650.38;5130826;27;20184;-69
2022/03/26 10:33:27;;;;;;;14.20;12.90;;;;;;;17.20;48.19;102651.41;5136795;27;20211;-70
2022/03/26 10:35:59;;;;;;;16.27;12.93;;;;;;;17.34;48.36;102638.50;5135280;27;20184;-69
2022/03/26 10:38:43;;;;;;;15.60;13.43;;;;;;;17.46;48.41;102635.38;5137518;27;20176;-69
2022/03/26 10:41:10;;;;;;;15.50;13.20;;;;;;;17.50;47.95;102638.75;5137153;27;20218;-69
2022/03/26 10:43:39;;;;;;;20.77;12.40;;;;;;;17.51;48.15;102630.78;5133618;27;20204;-69
2022/03/26 10:46:06;;;;;;;14.27;12.37;;;;;;;17.42;49.15;102636.41;5132012;27;20193;-70
2022/03/26 10:48:34;;;;;;;17.73;12.17;;;;;;;17.70;49.10;102635.31;5137301;27;20204;-70
2022/03/26 10:51:06;;;;;;;14.47;12.97;;;;;;;17.90;47.94;102627.47;5136942;27;20548;-69
2022/03/26 10:53:34;;;;;;;17.30;11.53;;;;;;;17.88;46.48;102626.66;5136816;27;20211;-70
2022/03/26 10:56:09;;;;;;;14.57;13.13;;;;;;;17.54;47.42;102627.13;5129547;27;20539;-69
2022/03/26 10:58:37;;;;;;;16.97;13.13;;;;;;;17.79;48.65;102621.75;5117113;27;20183;-70
2022/03/26 11:01:04;;;;;;;14.60;12.13;;;;;;;17.78;48.39;102625.31;5116421;27;20194;-69
2022/03/26 11:03:33;;;;;;;12.93;11.60;;;;;;;17.96;46.65;102615.75;5116100;28;20690;-69
2022/03/26 11:06:00;;;;;;;15.70;11.50;;;;;;;18.07;46.00;102610.84;5116067;28;20196;-69
2022/03/26 11:08:35;;;;;;;11.77;10.67;;;;;;;18.27;46.11;102616.16;5126620;27;20188;-70
2022/03/26 11:11:06;;;;;;;12.37;10.67;;;;;;;18.35;47.04;102616.69;5136652;27;20173;-70
2022/03/26 11:13:36;;;;;;;8.80;8.10;;;;;;;18.19;45.15;102610.31;5136722;27;20700;-70
2022/03/26 11:16:07;;;;;;;9.23;8.70;;;;;;;18.36;44.17;102609.59;5132794;27;20196;-70
2022/03/26 11:19:18;;;;;;;10.73;9.83;;;;;;;18.66;45.27;102607.41;5135878;27;20184;-70